sensor_id;sensor_type;location;lat;lon;timestamp;P1;durP1;ratioP1;P2;durP2;ratioP2
70818;SDS011;58439;51.046;13.692;2022-10-16T00:04:22;23.08;;;12.60;;
70818;SDS011;58439;51.046;13.692;2022-10-16T00:26:59;24.55;;;13.00;;
70818;SDS011;58439;51.046;13.692;2022-10-16T01:15:29;15.77;;;9.27;;
70818;SDS011;58439;51.046;13.692;2022-10-16T01:18:25;15.95;;;8.70;;
70818;SDS011;58439;51.046;13.692;2022-10-16T01:21:15;16.63;;;8.90;;
70818;SDS011;58439;51.046;13.692;2022-10-16T01:32:31;13.70;;;7.78;;
70818;SDS011;58439;51.046;13.692;2022-10-16T01:35:23;16.65;;;8.93;;
70818;SDS011;58439;51.046;13.692;2022-10-16T01:38:12;14.32;;;8.13;;
70818;SDS011;58439;51.046;13.692;2022-10-16T01:40:55;16.33;;;9.07;;
70818;SDS011;58439;51.046;13.692;2022-10-16T01:43:38;14.65;;;8.10;;
70818;SDS011;58439;51.046;13.692;2022-10-16T02:08:16;12.80;;;7.75;;
70818;SDS011;58439;51.046;13.692;2022-10-16T02:10:44;18.15;;;7.65;;
70818;SDS011;58439;51.046;13.692;2022-10-16T02:16:36;11.05;;;7.22;;
70818;SDS011;58439;51.046;13.692;2022-10-16T02:19:11;14.75;;;7.88;;
70818;SDS011;58439;51.046;13.692;2022-10-16T02:41:42;14.07;;;6.95;;
70818;SDS011;58439;51.046;13.692;2022-10-16T02:46:43;13.43;;;6.95;;
70818;SDS011;58439;51.046;13.692;2022-10-16T02:49:51;12.48;;;6.93;;
70818;SDS011;58439;51.046;13.692;2022-10-16T02:52:25;11.68;;;7.05;;
70818;SDS011;58439;51.046;13.692;2022-10-16T02:54:53;11.32;;;7.43;;
70818;SDS011;58439;51.046;13.692;2022-10-16T02:57:20;15.27;;;7.28;;
70818;SDS011;58439;51.046;13.692;2022-10-16T02:59:48;14.07;;;7.20;;
70818;SDS011;58439;51.046;13.692;2022-10-16T03:02:16;10.52;;;6.40;;
70818;SDS011;58439;51.046;13.692;2022-10-16T03:44:05;10.40;;;6.25;;
70818;SDS011;58439;51.046;13.692;2022-10-16T03:46:33;12.32;;;6.38;;
70818;SDS011;58439;51.046;13.692;2022-10-16T03:49:00;11.27;;;6.53;;
70818;SDS011;58439;51.046;13.692;2022-10-16T03:54:00;9.95;;;6.20;;
70818;SDS011;58439;51.046;13.692;2022-10-16T03:56:27;10.57;;;6.43;;
70818;SDS011;58439;51.046;13.692;2022-10-16T03:58:54;11.15;;;6.38;;
70818;SDS011;58439;51.046;13.692;2022-10-16T04:12:20;12.10;;;6.53;;
70818;SDS011;58439;51.046;13.692;2022-10-16T04:31:27;9.82;;;6.00;;
70818;SDS011;58439;51.046;13.692;2022-10-16T04:33:54;12.20;;;6.78;;
70818;SDS011;58439;51.046;13.692;2022-10-16T04:36:31;10.15;;;6.88;;
70818;SDS011;58439;51.046;13.692;2022-10-16T04:44:56;10.02;;;6.85;;
70818;SDS011;58439;51.046;13.692;2022-10-16T04:47:25;10.43;;;6.63;;
70818;SDS011;58439;51.046;13.692;2022-10-16T04:49:53;12.23;;;6.78;;
70818;SDS011;58439;51.046;13.692;2022-10-16T04:52:47;9.70;;;5.93;;
70818;SDS011;58439;51.046;13.692;2022-10-16T04:55:22;12.10;;;6.72;;
70818;SDS011;58439;51.046;13.692;2022-10-16T04:57:49;9.50;;;6.45;;
70818;SDS011;58439;51.046;13.692;2022-10-16T05:00:16;11.35;;;7.05;;
70818;SDS011;58439;51.046;13.692;2022-10-16T05:02:44;13.48;;;7.07;;
70818;SDS011;58439;51.046;13.692;2022-10-16T05:05:11;11.07;;;6.07;;
70818;SDS011;58439;51.046;13.692;2022-10-16T05:07:41;12.18;;;6.72;;
70818;SDS011;58439;51.046;13.692;2022-10-16T05:10:16;11.13;;;6.97;;
70818;SDS011;58439;51.046;13.692;2022-10-16T05:12:43;9.70;;;6.78;;
70818;SDS011;58439;51.046;13.692;2022-10-16T05:15:11;10.38;;;6.72;;
70818;SDS011;58439;51.046;13.692;2022-10-16T05:17:38;10.27;;;6.75;;
70818;SDS011;58439;51.046;13.692;2022-10-16T05:20:10;9.43;;;6.50;;
70818;SDS011;58439;51.046;13.692;2022-10-16T05:22:39;9.93;;;5.75;;
70818;SDS011;58439;51.046;13.692;2022-10-16T05:25:06;10.07;;;6.07;;
70818;SDS011;58439;51.046;13.692;2022-10-16T05:27:47;10.73;;;5.75;;
70818;SDS011;58439;51.046;13.692;2022-10-16T05:45:54;11.02;;;5.93;;
70818;SDS011;58439;51.046;13.692;2022-10-16T05:48:42;10.18;;;5.50;;
70818;SDS011;58439;51.046;13.692;2022-10-16T05:52:09;10.40;;;6.45;;
70818;SDS011;58439;51.046;13.692;2022-10-16T05:55:18;13.88;;;6.00;;
70818;SDS011;58439;51.046;13.692;2022-10-16T06:02:22;8.23;;;5.47;;
70818;SDS011;58439;51.046;13.692;2022-10-16T06:05:25;6.35;;;5.10;;
70818;SDS011;58439;51.046;13.692;2022-10-16T06:08:02;8.63;;;5.22;;
70818;SDS011;58439;51.046;13.692;2022-10-16T06:15:08;9.80;;;5.28;;
70818;SDS011;58439;51.046;13.692;2022-10-16T06:17:35;7.95;;;5.43;;
70818;SDS011;58439;51.046;13.692;2022-10-16T06:20:02;7.57;;;4.93;;
70818;SDS011;58439;51.046;13.692;2022-10-16T06:22:48;8.18;;;4.80;;
70818;SDS011;58439;51.046;13.692;2022-10-16T06:25:15;10.05;;;5.57;;
70818;SDS011;58439;51.046;13.692;2022-10-16T06:53:49;9.25;;;6.22;;
70818;SDS011;58439;51.046;13.692;2022-10-16T06:57:33;15.70;;;6.40;;
70818;SDS011;58439;51.046;13.692;2022-10-16T07:00:01;11.05;;;6.68;;
70818;SDS011;58439;51.046;13.692;2022-10-16T07:02:29;8.75;;;6.05;;
70818;SDS011;58439;51.046;13.692;2022-10-16T07:04:57;10.82;;;6.60;;
70818;SDS011;58439;51.046;13.692;2022-10-16T07:07:24;11.10;;;7.03;;
70818;SDS011;58439;51.046;13.692;2022-10-16T07:09:52;10.40;;;6.60;;
70818;SDS011;58439;51.046;13.692;2022-10-16T07:12:20;9.40;;;6.63;;
70818;SDS011;58439;51.046;13.692;2022-10-16T07:14:47;12.15;;;6.45;;
70818;SDS011;58439;51.046;13.692;2022-10-16T07:17:14;9.57;;;5.97;;
70818;SDS011;58439;51.046;13.692;2022-10-16T07:19:41;12.98;;;6.43;;
70818;SDS011;58439;51.046;13.692;2022-10-16T07:22:08;12.85;;;7.10;;
70818;SDS011;58439;51.046;13.692;2022-10-16T07:24:36;10.63;;;6.97;;
70818;SDS011;58439;51.046;13.692;2022-10-16T07:27:03;12.02;;;7.82;;
70818;SDS011;58439;51.046;13.692;2022-10-16T07:29:30;11.88;;;6.55;;
70818;SDS011;58439;51.046;13.692;2022-10-16T07:31:57;12.40;;;8.32;;
70818;SDS011;58439;51.046;13.692;2022-10-16T07:34:25;12.93;;;7.60;;
70818;SDS011;58439;51.046;13.692;2022-10-16T07:36:53;12.45;;;7.55;;
70818;SDS011;58439;51.046;13.692;2022-10-16T07:39:20;14.52;;;8.40;;
70818;SDS011;58439;51.046;13.692;2022-10-16T07:41:47;11.43;;;7.55;;
70818;SDS011;58439;51.046;13.692;2022-10-16T07:44:15;12.07;;;7.55;;
70818;SDS011;58439;51.046;13.692;2022-10-16T07:46:43;11.32;;;7.47;;
70818;SDS011;58439;51.046;13.692;2022-10-16T07:49:10;12.52;;;7.95;;
70818;SDS011;58439;51.046;13.692;2022-10-16T07:51:38;11.55;;;7.53;;
70818;SDS011;58439;51.046;13.692;2022-10-16T07:54:07;11.90;;;7.68;;
70818;SDS011;58439;51.046;13.692;2022-10-16T07:56:36;11.68;;;8.20;;
70818;SDS011;58439;51.046;13.692;2022-10-16T07:59:09;15.88;;;8.13;;
70818;SDS011;58439;51.046;13.692;2022-10-16T08:01:36;12.07;;;7.90;;
70818;SDS011;58439;51.046;13.692;2022-10-16T08:04:04;13.45;;;7.78;;
70818;SDS011;58439;51.046;13.692;2022-10-16T08:06:41;12.70;;;7.50;;
70818;SDS011;58439;51.046;13.692;2022-10-16T08:09:26;12.65;;;7.20;;
70818;SDS011;58439;51.046;13.692;2022-10-16T08:12:09;10.73;;;7.45;;
70818;SDS011;58439;51.046;13.692;2022-10-16T08:14:50;13.80;;;8.77;;
70818;SDS011;58439;51.046;13.692;2022-10-16T08:17:17;9.73;;;7.45;;
70818;SDS011;58439;51.046;13.692;2022-10-16T08:19:44;12.07;;;8.45;;
70818;SDS011;58439;51.046;13.692;2022-10-16T08:22:18;13.48;;;7.82;;
70818;SDS011;58439;51.046;13.692;2022-10-16T08:24:45;11.90;;;8.40;;
70818;SDS011;58439;51.046;13.692;2022-10-16T08:27:25;13.30;;;8.48;;
70818;SDS011;58439;51.046;13.692;2022-10-16T08:29:59;14.60;;;8.00;;
70818;SDS011;58439;51.046;13.692;2022-10-16T08:32:35;11.40;;;7.82;;
70818;SDS011;58439;51.046;13.692;2022-10-16T08:35:58;13.68;;;8.65;;
70818;SDS011;58439;51.046;13.692;2022-10-16T08:38:25;11.70;;;7.88;;
70818;SDS011;58439;51.046;13.692;2022-10-16T08:41:59;11.63;;;7.78;;
70818;SDS011;58439;51.046;13.692;2022-10-16T08:44:40;10.68;;;7.22;;
70818;SDS011;58439;51.046;13.692;2022-10-16T08:47:26;10.85;;;7.57;;
70818;SDS011;58439;51.046;13.692;2022-10-16T08:50:09;13.85;;;7.95;;
70818;SDS011;58439;51.046;13.692;2022-10-16T08:52:50;11.63;;;7.95;;
70818;SDS011;58439;51.046;13.692;2022-10-16T08:55:37;10.07;;;7.28;;
70818;SDS011;58439;51.046;13.692;2022-10-16T08:58:26;9.48;;;7.20;;
70818;SDS011;58439;51.046;13.692;2022-10-16T09:00:57;13.20;;;7.13;;
70818;SDS011;58439;51.046;13.692;2022-10-16T09:03:48;11.43;;;7.35;;
70818;SDS011;58439;51.046;13.692;2022-10-16T09:16:29;6.88;;;5.18;;
70818;SDS011;58439;51.046;13.692;2022-10-16T09:23:14;6.60;;;4.50;;
70818;SDS011;58439;51.046;13.692;2022-10-16T09:26:35;7.65;;;5.25;;
70818;SDS011;58439;51.046;13.692;2022-10-16T09:29:02;6.75;;;4.68;;
70818;SDS011;58439;51.046;13.692;2022-10-16T09:31:43;6.70;;;4.72;;
70818;SDS011;58439;51.046;13.692;2022-10-16T09:34:59;8.68;;;4.30;;
70818;SDS011;58439;51.046;13.692;2022-10-16T09:41:36;4.00;;;2.60;;
70818;SDS011;58439;51.046;13.692;2022-10-16T09:43:59;2.97;;;1.90;;
70818;SDS011;58439;51.046;13.692;2022-10-16T09:46:45;5.85;;;3.15;;
70818;SDS011;58439;51.046;13.692;2022-10-16T09:52:41;1.92;;;0.80;;
70818;SDS011;58439;51.046;13.692;2022-10-16T09:55:15;1.00;;;0.70;;
70818;SDS011;58439;51.046;13.692;2022-10-16T09:57:51;0.90;;;0.68;;
70818;SDS011;58439;51.046;13.692;2022-10-16T10:00:20;0.90;;;0.70;;
70818;SDS011;58439;51.046;13.692;2022-10-16T10:02:49;1.35;;;0.65;;
70818;SDS011;58439;51.046;13.692;2022-10-16T10:05:21;3.08;;;0.60;;
70818;SDS011;58439;51.046;13.692;2022-10-16T10:07:54;1.50;;;0.70;;
70818;SDS011;58439;51.046;13.692;2022-10-16T10:10:27;0.93;;;0.57;;
70818;SDS011;58439;51.046;13.692;2022-10-16T10:12:59;0.88;;;0.55;;
70818;SDS011;58439;51.046;13.692;2022-10-16T10:15:27;2.70;;;0.60;;
70818;SDS011;58439;51.046;13.692;2022-10-16T10:18:15;1.73;;;0.50;;
70818;SDS011;58439;51.046;13.692;2022-10-16T10:21:14;0.45;;;0.40;;
70818;SDS011;58439;51.046;13.692;2022-10-16T10:23:42;1.83;;;0.45;;
70818;SDS011;58439;51.046;13.692;2022-10-16T10:26:16;2.17;;;0.60;;
70818;SDS011;58439;51.046;13.692;2022-10-16T10:29:02;0.60;;;0.40;;
70818;SDS011;58439;51.046;13.692;2022-10-16T10:31:51;1.48;;;0.60;;
70818;SDS011;58439;51.046;13.692;2022-10-16T10:34:47;3.13;;;0.60;;
70818;SDS011;58439;51.046;13.692;2022-10-16T10:47:04;0.50;;;0.40;;
70818;SDS011;58439;51.046;13.692;2022-10-16T10:53:18;0.73;;;0.40;;
70818;SDS011;58439;51.046;13.692;2022-10-16T10:56:16;1.00;;;0.43;;
70818;SDS011;58439;51.046;13.692;2022-10-16T11:02:31;1.00;;;0.38;;
70818;SDS011;58439;51.046;13.692;2022-10-16T11:14:27;0.30;;;0.30;;
70818;SDS011;58439;51.046;13.692;2022-10-16T11:20:13;0.73;;;0.35;;
70818;SDS011;58439;51.046;13.692;2022-10-16T11:22:50;0.82;;;0.50;;
70818;SDS011;58439;51.046;13.692;2022-10-16T11:25:24;0.25;;;0.25;;
70818;SDS011;58439;51.046;13.692;2022-10-16T11:30:59;0.43;;;0.40;;
70818;SDS011;58439;51.046;13.692;2022-10-16T11:33:55;2.35;;;0.30;;
70818;SDS011;58439;51.046;13.692;2022-10-16T11:37:05;1.73;;;0.60;;
70818;SDS011;58439;51.046;13.692;2022-10-16T11:39:40;1.02;;;0.50;;
70818;SDS011;58439;51.046;13.692;2022-10-16T11:42:11;0.88;;;0.40;;
70818;SDS011;58439;51.046;13.692;2022-10-16T11:44:54;0.75;;;0.50;;
70818;SDS011;58439;51.046;13.692;2022-10-16T11:47:43;2.17;;;0.63;;
70818;SDS011;58439;51.046;13.692;2022-10-16T11:50:45;2.67;;;0.50;;
70818;SDS011;58439;51.046;13.692;2022-10-16T11:53:41;1.27;;;0.60;;
70818;SDS011;58439;51.046;13.692;2022-10-16T12:00:21;1.15;;;0.57;;
70818;SDS011;58439;51.046;13.692;2022-10-16T12:03:23;1.15;;;0.40;;
70818;SDS011;58439;51.046;13.692;2022-10-16T12:09:05;1.77;;;0.60;;
70818;SDS011;58439;51.046;13.692;2022-10-16T12:11:52;0.90;;;0.50;;
70818;SDS011;58439;51.046;13.692;2022-10-16T12:17:27;0.93;;;0.40;;
70818;SDS011;58439;51.046;13.692;2022-10-16T12:22:51;6.63;;;0.50;;
70818;SDS011;58439;51.046;13.692;2022-10-16T12:25:26;0.70;;;0.32;;
70818;SDS011;58439;51.046;13.692;2022-10-16T12:28:02;0.70;;;0.40;;
70818;SDS011;58439;51.046;13.692;2022-10-16T12:33:06;2.15;;;0.70;;
70818;SDS011;58439;51.046;13.692;2022-10-16T12:35:50;1.88;;;0.60;;
70818;SDS011;58439;51.046;13.692;2022-10-16T12:38:19;0.63;;;0.40;;
70818;SDS011;58439;51.046;13.692;2022-10-16T12:40:58;1.67;;;0.40;;
70818;SDS011;58439;51.046;13.692;2022-10-16T12:46:05;1.75;;;0.55;;
70818;SDS011;58439;51.046;13.692;2022-10-16T12:48:50;3.25;;;0.80;;
70818;SDS011;58439;51.046;13.692;2022-10-16T12:51:35;2.83;;;0.55;;
70818;SDS011;58439;51.046;13.692;2022-10-16T12:54:17;1.70;;;0.50;;
70818;SDS011;58439;51.046;13.692;2022-10-16T12:57:07;1.33;;;0.50;;
70818;SDS011;58439;51.046;13.692;2022-10-16T13:00:27;1.42;;;0.40;;
70818;SDS011;58439;51.046;13.692;2022-10-16T13:03:30;1.50;;;0.70;;
70818;SDS011;58439;51.046;13.692;2022-10-16T13:06:38;0.57;;;0.50;;
70818;SDS011;58439;51.046;13.692;2022-10-16T13:12:23;0.80;;;0.55;;
70818;SDS011;58439;51.046;13.692;2022-10-16T13:17:58;0.50;;;0.50;;
70818;SDS011;58439;51.046;13.692;2022-10-16T13:20:53;1.35;;;0.60;;
70818;SDS011;58439;51.046;13.692;2022-10-16T13:23:37;0.77;;;0.47;;
70818;SDS011;58439;51.046;13.692;2022-10-16T13:29:23;0.85;;;0.52;;
70818;SDS011;58439;51.046;13.692;2022-10-16T13:31:56;3.40;;;0.70;;
70818;SDS011;58439;51.046;13.692;2022-10-16T13:34:26;1.00;;;0.60;;
70818;SDS011;58439;51.046;13.692;2022-10-16T13:36:55;1.92;;;0.50;;
70818;SDS011;58439;51.046;13.692;2022-10-16T13:39:28;2.45;;;1.15;;
70818;SDS011;58439;51.046;13.692;2022-10-16T13:44:39;1.60;;;0.80;;
70818;SDS011;58439;51.046;13.692;2022-10-16T13:47:18;1.80;;;0.90;;
70818;SDS011;58439;51.046;13.692;2022-10-16T13:50:00;2.00;;;0.80;;
70818;SDS011;58439;51.046;13.692;2022-10-16T13:52:35;1.90;;;0.75;;
70818;SDS011;58439;51.046;13.692;2022-10-16T13:55:14;2.60;;;0.77;;
70818;SDS011;58439;51.046;13.692;2022-10-16T13:57:45;1.50;;;0.80;;
70818;SDS011;58439;51.046;13.692;2022-10-16T14:00:22;1.00;;;0.70;;
70818;SDS011;58439;51.046;13.692;2022-10-16T14:03:07;3.30;;;0.70;;
70818;SDS011;58439;51.046;13.692;2022-10-16T14:05:52;4.07;;;0.82;;
70818;SDS011;58439;51.046;13.692;2022-10-16T14:08:24;1.45;;;0.63;;
70818;SDS011;58439;51.046;13.692;2022-10-16T14:10:55;2.67;;;0.82;;
70818;SDS011;58439;51.046;13.692;2022-10-16T14:13:32;2.92;;;0.90;;
70818;SDS011;58439;51.046;13.692;2022-10-16T14:16:09;2.53;;;0.90;;
70818;SDS011;58439;51.046;13.692;2022-10-16T14:18:54;1.48;;;0.80;;
70818;SDS011;58439;51.046;13.692;2022-10-16T14:21:30;3.67;;;1.10;;
70818;SDS011;58439;51.046;13.692;2022-10-16T14:24:43;1.77;;;0.82;;
70818;SDS011;58439;51.046;13.692;2022-10-16T14:30:17;2.92;;;0.80;;
70818;SDS011;58439;51.046;13.692;2022-10-16T14:32:55;4.25;;;1.00;;
70818;SDS011;58439;51.046;13.692;2022-10-16T14:35:38;1.67;;;1.00;;
70818;SDS011;58439;51.046;13.692;2022-10-16T14:38:15;4.00;;;1.15;;
70818;SDS011;58439;51.046;13.692;2022-10-16T14:40:47;2.15;;;0.77;;
70818;SDS011;58439;51.046;13.692;2022-10-16T14:43:23;1.80;;;1.00;;
70818;SDS011;58439;51.046;13.692;2022-10-16T14:46:03;2.00;;;0.90;;
70818;SDS011;58439;51.046;13.692;2022-10-16T14:48:41;2.67;;;1.08;;
70818;SDS011;58439;51.046;13.692;2022-10-16T14:51:13;2.28;;;1.10;;
70818;SDS011;58439;51.046;13.692;2022-10-16T14:53:42;1.88;;;1.10;;
70818;SDS011;58439;51.046;13.692;2022-10-16T14:56:16;1.90;;;1.02;;
70818;SDS011;58439;51.046;13.692;2022-10-16T14:58:47;2.92;;;0.98;;
70818;SDS011;58439;51.046;13.692;2022-10-16T15:01:18;1.42;;;0.80;;
70818;SDS011;58439;51.046;13.692;2022-10-16T15:03:46;2.22;;;1.20;;
70818;SDS011;58439;51.046;13.692;2022-10-16T15:06:15;1.45;;;0.70;;
70818;SDS011;58439;51.046;13.692;2022-10-16T15:08:42;2.20;;;0.82;;
70818;SDS011;58439;51.046;13.692;2022-10-16T15:11:14;2.70;;;1.63;;
70818;SDS011;58439;51.046;13.692;2022-10-16T15:14:10;1.83;;;1.00;;
70818;SDS011;58439;51.046;13.692;2022-10-16T15:16:41;1.95;;;1.17;;
70818;SDS011;58439;51.046;13.692;2022-10-16T15:19:08;1.20;;;0.88;;
70818;SDS011;58439;51.046;13.692;2022-10-16T15:21:35;1.90;;;0.95;;
70818;SDS011;58439;51.046;13.692;2022-10-16T15:24:04;3.55;;;1.30;;
70818;SDS011;58439;51.046;13.692;2022-10-16T15:26:44;2.38;;;1.35;;
70818;SDS011;58439;51.046;13.692;2022-10-16T15:29:16;2.83;;;1.48;;
70818;SDS011;58439;51.046;13.692;2022-10-16T15:31:44;2.13;;;1.17;;
70818;SDS011;58439;51.046;13.692;2022-10-16T15:34:14;2.63;;;1.50;;
70818;SDS011;58439;51.046;13.692;2022-10-16T15:36:41;6.57;;;1.77;;
70818;SDS011;58439;51.046;13.692;2022-10-16T15:39:13;2.92;;;1.40;;
70818;SDS011;58439;51.046;13.692;2022-10-16T15:41:44;6.63;;;1.40;;
70818;SDS011;58439;51.046;13.692;2022-10-16T15:44:45;5.88;;;1.80;;
70818;SDS011;58439;51.046;13.692;2022-10-16T15:47:12;3.78;;;1.75;;
70818;SDS011;58439;51.046;13.692;2022-10-16T15:49:42;3.15;;;1.52;;
70818;SDS011;58439;51.046;13.692;2022-10-16T15:52:14;10.88;;;3.15;;
70818;SDS011;58439;51.046;13.692;2022-10-16T15:54:43;8.07;;;2.00;;
70818;SDS011;58439;51.046;13.692;2022-10-16T15:57:21;3.60;;;1.65;;
70818;SDS011;58439;51.046;13.692;2022-10-16T15:59:49;6.80;;;2.15;;
70818;SDS011;58439;51.046;13.692;2022-10-16T16:02:16;4.55;;;2.15;;
70818;SDS011;58439;51.046;13.692;2022-10-16T16:04:44;10.15;;;2.83;;
70818;SDS011;58439;51.046;13.692;2022-10-16T16:11:22;6.70;;;2.33;;
70818;SDS011;58439;51.046;13.692;2022-10-16T16:13:51;8.32;;;2.42;;
70818;SDS011;58439;51.046;13.692;2022-10-16T16:16:41;3.83;;;2.13;;
70818;SDS011;58439;51.046;13.692;2022-10-16T16:19:23;15.63;;;8.30;;
70818;SDS011;58439;51.046;13.692;2022-10-16T16:27:01;7.95;;;3.28;;
70818;SDS011;58439;51.046;13.692;2022-10-16T16:29:31;6.55;;;2.30;;
70818;SDS011;58439;51.046;13.692;2022-10-16T16:31:59;7.72;;;2.10;;
70818;SDS011;58439;51.046;13.692;2022-10-16T16:39:04;17.27;;;6.55;;
70818;SDS011;58439;51.046;13.692;2022-10-16T16:41:36;10.57;;;5.63;;
70818;SDS011;58439;51.046;13.692;2022-10-16T16:49:01;7.90;;;3.65;;
70818;SDS011;58439;51.046;13.692;2022-10-16T16:51:29;7.13;;;4.20;;
70818;SDS011;58439;51.046;13.692;2022-10-16T16:53:58;9.48;;;4.75;;
70818;SDS011;58439;51.046;13.692;2022-10-16T16:56:26;11.60;;;4.63;;
70818;SDS011;58439;51.046;13.692;2022-10-16T16:58:53;7.45;;;4.75;;
70818;SDS011;58439;51.046;13.692;2022-10-16T17:01:24;10.82;;;5.25;;
70818;SDS011;58439;51.046;13.692;2022-10-16T17:03:54;13.77;;;5.85;;
70818;SDS011;58439;51.046;13.692;2022-10-16T17:06:24;13.48;;;6.25;;
70818;SDS011;58439;51.046;13.692;2022-10-16T17:08:56;16.48;;;6.40;;
70818;SDS011;58439;51.046;13.692;2022-10-16T17:11:25;16.40;;;6.90;;
70818;SDS011;58439;51.046;13.692;2022-10-16T17:13:54;14.30;;;7.05;;
70818;SDS011;58439;51.046;13.692;2022-10-16T17:16:34;14.05;;;6.82;;
70818;SDS011;58439;51.046;13.692;2022-10-16T17:19:05;15.48;;;7.65;;
70818;SDS011;58439;51.046;13.692;2022-10-16T17:21:37;14.77;;;7.43;;
70818;SDS011;58439;51.046;13.692;2022-10-16T17:24:05;17.85;;;7.82;;
70818;SDS011;58439;51.046;13.692;2022-10-16T17:26:32;16.90;;;7.68;;
70818;SDS011;58439;51.046;13.692;2022-10-16T17:29:03;19.75;;;8.27;;
70818;SDS011;58439;51.046;13.692;2022-10-16T17:31:32;17.42;;;7.97;;
70818;SDS011;58439;51.046;13.692;2022-10-16T17:34:03;28.88;;;8.63;;
70818;SDS011;58439;51.046;13.692;2022-10-16T17:36:34;19.50;;;9.00;;
70818;SDS011;58439;51.046;13.692;2022-10-16T17:39:05;17.35;;;8.52;;
70818;SDS011;58439;51.046;13.692;2022-10-16T17:41:35;22.02;;;9.35;;
70818;SDS011;58439;51.046;13.692;2022-10-16T17:44:03;14.57;;;8.00;;
70818;SDS011;58439;51.046;13.692;2022-10-16T17:46:32;16.40;;;8.30;;
70818;SDS011;58439;51.046;13.692;2022-10-16T17:49:05;17.65;;;9.15;;
70818;SDS011;58439;51.046;13.692;2022-10-16T17:51:32;15.73;;;9.00;;
70818;SDS011;58439;51.046;13.692;2022-10-16T17:54:00;18.27;;;9.93;;
70818;SDS011;58439;51.046;13.692;2022-10-16T17:56:28;16.23;;;8.57;;
70818;SDS011;58439;51.046;13.692;2022-10-16T17:58:58;15.95;;;8.45;;
70818;SDS011;58439;51.046;13.692;2022-10-16T18:01:28;17.00;;;7.75;;
70818;SDS011;58439;51.046;13.692;2022-10-16T18:09:00;10.77;;;6.43;;
70818;SDS011;58439;51.046;13.692;2022-10-16T18:11:29;15.88;;;8.55;;
70818;SDS011;58439;51.046;13.692;2022-10-16T18:13:57;10.25;;;6.13;;
70818;SDS011;58439;51.046;13.692;2022-10-16T18:16:26;13.27;;;7.05;;
70818;SDS011;58439;51.046;13.692;2022-10-16T18:18:56;12.90;;;6.28;;
70818;SDS011;58439;51.046;13.692;2022-10-16T18:21:25;14.48;;;6.70;;
70818;SDS011;58439;51.046;13.692;2022-10-16T18:23:54;11.20;;;5.93;;
70818;SDS011;58439;51.046;13.692;2022-10-16T18:26:22;16.63;;;7.13;;
70818;SDS011;58439;51.046;13.692;2022-10-16T18:28:51;9.68;;;5.53;;
70818;SDS011;58439;51.046;13.692;2022-10-16T18:31:21;10.30;;;5.72;;
70818;SDS011;58439;51.046;13.692;2022-10-16T18:33:52;15.75;;;6.28;;
70818;SDS011;58439;51.046;13.692;2022-10-16T18:36:22;12.23;;;6.22;;
70818;SDS011;58439;51.046;13.692;2022-10-16T18:38:55;12.20;;;5.35;;
70818;SDS011;58439;51.046;13.692;2022-10-16T18:41:28;9.10;;;5.45;;
70818;SDS011;58439;51.046;13.692;2022-10-16T18:43:58;12.13;;;6.03;;
70818;SDS011;58439;51.046;13.692;2022-10-16T18:46:25;13.45;;;6.45;;
70818;SDS011;58439;51.046;13.692;2022-10-16T18:48:52;12.70;;;6.50;;
70818;SDS011;58439;51.046;13.692;2022-10-16T18:51:23;19.35;;;8.27;;
70818;SDS011;58439;51.046;13.692;2022-10-16T18:53:55;20.08;;;8.65;;
70818;SDS011;58439;51.046;13.692;2022-10-16T18:56:26;13.90;;;6.93;;
70818;SDS011;58439;51.046;13.692;2022-10-16T18:58:57;16.45;;;7.03;;
70818;SDS011;58439;51.046;13.692;2022-10-16T19:01:27;15.82;;;6.13;;
70818;SDS011;58439;51.046;13.692;2022-10-16T19:03:58;9.27;;;5.32;;
70818;SDS011;58439;51.046;13.692;2022-10-16T19:06:29;16.17;;;6.60;;
70818;SDS011;58439;51.046;13.692;2022-10-16T19:11:29;11.00;;;5.55;;
70818;SDS011;58439;51.046;13.692;2022-10-16T19:13:57;11.15;;;5.15;;
70818;SDS011;58439;51.046;13.692;2022-10-16T19:16:25;20.25;;;5.97;;
70818;SDS011;58439;51.046;13.692;2022-10-16T19:19:01;11.30;;;5.18;;
70818;SDS011;58439;51.046;13.692;2022-10-16T19:21:33;10.68;;;4.90;;
70818;SDS011;58439;51.046;13.692;2022-10-16T19:24:02;7.68;;;5.40;;
70818;SDS011;58439;51.046;13.692;2022-10-16T19:26:30;15.15;;;5.95;;
70818;SDS011;58439;51.046;13.692;2022-10-16T19:29:05;12.13;;;6.07;;
70818;SDS011;58439;51.046;13.692;2022-10-16T19:31:35;9.85;;;5.20;;
70818;SDS011;58439;51.046;13.692;2022-10-16T19:34:02;12.88;;;5.40;;
70818;SDS011;58439;51.046;13.692;2022-10-16T19:36:33;8.38;;;5.20;;
70818;SDS011;58439;51.046;13.692;2022-10-16T19:39:17;13.32;;;5.97;;
70818;SDS011;58439;51.046;13.692;2022-10-16T19:42:25;13.98;;;6.50;;
70818;SDS011;58439;51.046;13.692;2022-10-16T19:45:05;10.55;;;5.50;;
70818;SDS011;58439;51.046;13.692;2022-10-16T20:06:05;10.40;;;5.55;;
70818;SDS011;58439;51.046;13.692;2022-10-16T20:08:33;10.65;;;5.47;;
70818;SDS011;58439;51.046;13.692;2022-10-16T20:11:03;12.13;;;5.35;;
70818;SDS011;58439;51.046;13.692;2022-10-16T20:13:35;9.98;;;5.00;;
70818;SDS011;58439;51.046;13.692;2022-10-16T20:16:13;13.60;;;5.30;;
70818;SDS011;58439;51.046;13.692;2022-10-16T20:18:44;10.40;;;5.15;;
70818;SDS011;58439;51.046;13.692;2022-10-16T20:21:21;9.82;;;5.60;;
70818;SDS011;58439;51.046;13.692;2022-10-16T20:23:52;9.23;;;5.20;;
70818;SDS011;58439;51.046;13.692;2022-10-16T20:26:20;9.90;;;5.10;;
70818;SDS011;58439;51.046;13.692;2022-10-16T20:28:49;10.88;;;5.00;;
70818;SDS011;58439;51.046;13.692;2022-10-16T20:31:19;9.82;;;5.38;;
70818;SDS011;58439;51.046;13.692;2022-10-16T20:33:51;9.68;;;4.97;;
70818;SDS011;58439;51.046;13.692;2022-10-16T20:36:21;11.98;;;5.43;;
70818;SDS011;58439;51.046;13.692;2022-10-16T20:38:52;12.90;;;5.40;;
70818;SDS011;58439;51.046;13.692;2022-10-16T20:41:19;7.75;;;4.90;;
70818;SDS011;58439;51.046;13.692;2022-10-16T20:43:47;9.10;;;5.35;;
70818;SDS011;58439;51.046;13.692;2022-10-16T20:46:18;7.72;;;4.60;;
70818;SDS011;58439;51.046;13.692;2022-10-16T20:48:50;12.70;;;5.30;;
70818;SDS011;58439;51.046;13.692;2022-10-16T20:51:20;11.93;;;5.88;;
70818;SDS011;58439;51.046;13.692;2022-10-16T20:54:00;15.98;;;6.00;;
70818;SDS011;58439;51.046;13.692;2022-10-16T20:56:31;16.58;;;6.07;;
70818;SDS011;58439;51.046;13.692;2022-10-16T20:59:01;11.10;;;5.38;;
70818;SDS011;58439;51.046;13.692;2022-10-16T21:01:30;12.25;;;6.13;;
70818;SDS011;58439;51.046;13.692;2022-10-16T21:03:58;11.77;;;6.38;;
70818;SDS011;58439;51.046;13.692;2022-10-16T21:06:33;10.77;;;5.70;;
70818;SDS011;58439;51.046;13.692;2022-10-16T21:09:04;12.40;;;6.03;;
70818;SDS011;58439;51.046;13.692;2022-10-16T21:11:33;10.30;;;5.30;;
70818;SDS011;58439;51.046;13.692;2022-10-16T21:14:02;11.68;;;5.90;;
70818;SDS011;58439;51.046;13.692;2022-10-16T21:16:33;10.93;;;6.70;;
70818;SDS011;58439;51.046;13.692;2022-10-16T21:48:55;14.02;;;6.50;;
70818;SDS011;58439;51.046;13.692;2022-10-16T21:51:26;17.17;;;7.55;;
70818;SDS011;58439;51.046;13.692;2022-10-16T21:53:58;14.15;;;7.20;;
70818;SDS011;58439;51.046;13.692;2022-10-16T21:56:26;15.90;;;7.55;;
70818;SDS011;58439;51.046;13.692;2022-10-16T22:18:35;14.10;;;6.72;;
70818;SDS011;58439;51.046;13.692;2022-10-16T22:21:06;18.05;;;6.18;;
70818;SDS011;58439;51.046;13.692;2022-10-16T22:23:35;14.27;;;6.30;;
70818;SDS011;58439;51.046;13.692;2022-10-16T22:26:04;14.60;;;6.28;;
70818;SDS011;58439;51.046;13.692;2022-10-16T22:28:36;18.00;;;5.90;;